Terminal Aerodrome Forecast
Issued by NWS Flagstaff, AZ

Home | Current Version | Previous Version | Text Only | Print | Product List | Glossary On
Versions: 1 2 3 4 5 6 7 8 9 10 11 12 13 14 15 16 17 18 19 20
481
FTUS45 KFGZ 280542
TAFFLG
TAF
KFLG 280542Z 2806/0106 23010KT 1SM -SN BR VV007
      TEMPO 2806/2810 1/2SM SN FZFG VV003
     FM281200 24013KT 1SM -SN BR OVC004
     FM281800 24010KT P6SM BKN035 PROB30 2818/2822 4SM -SHSN BR
      BKN010=

USA.gov is the U.S. government's official web portal to all federal, state and local government web resources and services.